Terminal Aerodrome Forecast
Issued by NWS

Home | Current Version | Previous Version | Text Only | Print | Product List | Glossary On
Versions: 1 2 3 4 5 6 7 8 9 10 11 12 13 14 15 16 17 18 19 20 21 22 23 24 25 26
414
FTUS45 KTFX 141739
TAFHVR
TAF
KHVR 141739Z 1418/1518 26015G25KT P6SM BKN120
     FM150000 29008KT P6SM BKN150
     FM150700 24008KT P6SM OVC050
      TEMPO 1507/1511 6SM -RA BR OVC025=

USA.gov is the U.S. government's official web portal to all federal, state and local government web resources and services.